首页
METAR-TAF:

METAR-TAF

机场 :

新加坡樟宜机场

新加坡, 新加坡

纬度: 01-22N, 经度: 103-59E, 海拔: 5米

当前天气观测

该预报发布于31分钟前的15:00 UTC
风速9节,风向南转南东
温度 29°C
湿度 79%
气压 1009 hPa
能见度10公里或以上
少量云层高于1600英尺
多云层高于30000英尺

METAR: WSSS 161500Z 16009KT 9999 FEW016 BKN300 29/25 Q1009 NOSIG

时间: 23:31 (15:31 UTC)

预报

该预报发布于4小时和31分钟前的11:00 UTC
预报有效从16日的 12点(UTC)到 17日的 18点(UTC)
风速10节,风向南转南东
能见度10公里或以上
少量云层高于1500英尺
散云层高于2000英尺
短暂存在
从 17日的 02点(UTC)到 17日的 06点(UTC)
能見度: 3000
少量云层高于1200英尺, 积雨云.
多云层高于1500英尺
雷暴, 雨

TAF: WSSS 161100Z 1612/1718 16010KT 9999 FEW015 SCT020 TEMPO 1702/1706 3000 TSRA FEW012CB BKN015

超过4000个机场的气象观测和天气预报(METAR&TAF报告)。

可查询的气象台以黄色和红色小点在地图上表示。

将鼠标移到小点上方,可查看气象台名称。

然后点击查看天气观测和预报。

如需切换地图:点击带黑十字的绿色按钮放大地图;点击带横线的绿色按钮缩小地图;或者点击绿色箭头查看邻近地区的地图。


METAR-TAF: